Nakhchivan — 9HHK8 — position and weather

sailwx.info

Track history (hours):
 
Tides and Currents Weather Stations Pressure Air Temp Water Temp Dewpoint Dewpoint Depression Visibility Wind Speed Wind Dir Waves Ship Positions

Nakhchivan

Last reported at 2016-May-27 17:32 UTC. Time now 2016-May-27 18:13 UTC.
Position N 46°56' E 031°57'.

Length 139 m; draft 3.6 m.

Type: Cargo ship. MMSI: 215983000.

Date/timePositionNaut miles runAvg speedWind from/ knotsBaromVisibWave heightAir tempDewpointWater temp
2016-May-27 17:32N 46°56' E 031°57'0 0.0
2016-May-27 16:32N 46°56' E 031°57'0 0.0
2016-May-27 15:30N 46°56' E 031°57'0 0.0
2016-May-27 14:31N 46°56' E 031°57'0 0.0
2016-May-27 13:33N 46°56' E 031°57'0 0.0
2016-May-27 12:32N 46°56' E 031°57'0 0.0
2016-May-27 11:33N 46°56' E 031°57'3 3.1
2016-May-27 10:33N 46°55' E 032°01'8 8.2
2016-May-27 09:33N 46°49' E 031°54'7 7.1
2016-May-27 08:33N 46°42' E 031°56'8 7.1
2016-May-27 07:27N 46°36' E 031°49'20 7.1
2016-May-27 04:33N 46°35' E 031°19'7 7.5
2016-May-27 03:33N 46°35' E 031°08'7 6.7
2016-May-27 02:33N 46°33' E 030°59'5 4.9
2016-May-27 01:33N 46°28' E 030°57'7 6.9
2016-May-27 00:33N 46°22' E 031°00'6 6.5
2016-May-26 23:33N 46°16' E 031°04'1 0.9
2016-May-26 22:33N 46°16' E 031°05'7 6.5
2016-May-26 21:31N 46°09' E 031°07'325 7.2
2016-May-25 00:32N 40°58' E 028°59'3 2.9
2016-May-24 23:32N 40°57' E 028°55'1 0.1
2016-May-24 05:23N 40°56' E 028°55'  
2016-May-19 11:19N 32°54' E 034°53'5 6.1
2016-May-19 10:33N 32°53' E 034°59'1 0.5
2016-May-19 09:31N 32°53' E 034°59'0 0.0
2016-May-19 08:23N 32°53' E 034°59'0 0.0
2016-May-19 07:32N 32°53' E 034°59'0 0.0
2016-May-19 06:32N 32°53' E 034°59'0 0.0
2016-May-19 05:31N 32°53' E 034°59'0 0.0
2016-May-19 04:32N 32°53' E 034°59'0 0.0
2016-May-19 03:32N 32°53' E 034°59'0 0.0
2016-May-19 02:32N 32°53' E 034°59'0 0.0
2016-May-19 01:32N 32°53' E 034°59'0 0.0
2016-May-19 00:32N 32°53' E 034°59'0 0.0
2016-May-18 23:32N 32°53' E 034°59'0 0.0
2016-May-18 22:31N 32°53' E 034°59'0 0.0
2016-May-18 21:31N 32°53' E 034°59'0 0.0
2016-May-18 20:24N 32°53' E 034°59'0 0.0
2016-May-18 19:23N 32°53' E 034°59'0 0.0
2016-May-18 18:32N 32°53' E 034°59'4 3.6
2016-May-18 17:34N 32°50' E 035°01'1 1.3
2016-May-18 16:32N 32°50' E 034°60'0 0.0
2016-May-18 15:32N 32°50' E 034°60'0 0.0
2016-May-18 14:31N 32°50' E 034°60'0 0.0
2016-May-18 13:33N 32°50' E 034°60'0 0.0
2016-May-18 12:32N 32°50' E 034°60'0 0.0
2016-May-18 11:32N 32°50' E 034°60'0 0.0
2016-May-18 10:33N 32°50' E 034°60'0 0.0
2016-May-18 09:33N 32°50' E 034°60'0 0.0
2016-May-18 08:31N 32°50' E 034°60'0 0.0
2016-May-18 07:33N 32°50' E 034°60'0 0.0
2016-May-18 06:33N 32°50' E 034°60'0 0.0
2016-May-18 05:33N 32°50' E 034°60'0 0.0
2016-May-18 04:33N 32°50' E 034°60'0 0.0
2016-May-18 03:31N 32°50' E 034°60'0 0.0
2016-May-18 02:32N 32°50' E 034°60'0 0.0
2016-May-18 01:29N 32°50' E 034°60'0 0.0
2016-May-18 00:32N 32°50' E 034°60'0 0.0
2016-May-17 23:32N 32°50' E 034°60'0 0.0
2016-May-17 22:27N 32°50' E 034°60'0 0.0
2016-May-17 21:30N 32°50' E 034°60'0 0.0
2016-May-17 20:28N 32°50' E 034°60'0 0.0
2016-May-17 19:31N 32°50' E 034°60'0 0.0
2016-May-17 18:29N 32°50' E 034°60'  
Track history (hours):
 
Tides and Currents Weather Stations Pressure Air Temp Water Temp Dewpoint Dewpoint Depression Visibility Wind Speed Wind Dir Waves Ship Positions

Nakhchivan

Last reported at 2016-May-27 17:32 UTC. Time now 2016-May-27 18:13 UTC.
Position N 46°56' E 031°57'.

Length 139 m; draft 3.6 m.

Type: Cargo ship. MMSI: 215983000.

Date/timePositionNaut miles runAvg speedWind from/ knotsBaromVisibWave heightAir tempDewpointWater temp
2016-May-27 17:32N 46°56' E 031°57'0 0.0
2016-May-27 16:32N 46°56' E 031°57'0 0.0
2016-May-27 15:30N 46°56' E 031°57'0 0.0
2016-May-27 14:31N 46°56' E 031°57'0 0.0
2016-May-27 13:33N 46°56' E 031°57'0 0.0
2016-May-27 12:32N 46°56' E 031°57'0 0.0
2016-May-27 11:33N 46°56' E 031°57'3 3.1
2016-May-27 10:33N 46°55' E 032°01'8 8.2
2016-May-27 09:33N 46°49' E 031°54'7 7.1
2016-May-27 08:33N 46°42' E 031°56'8 7.1
2016-May-27 07:27N 46°36' E 031°49'20 7.1
2016-May-27 04:33N 46°35' E 031°19'7 7.5
2016-May-27 03:33N 46°35' E 031°08'7 6.7
2016-May-27 02:33N 46°33' E 030°59'5 4.9
2016-May-27 01:33N 46°28' E 030°57'7 6.9
2016-May-27 00:33N 46°22' E 031°00'6 6.5
2016-May-26 23:33N 46°16' E 031°04'1 0.9
2016-May-26 22:33N 46°16' E 031°05'7 6.5
2016-May-26 21:31N 46°09' E 031°07'325 7.2
2016-May-25 00:32N 40°58' E 028°59'3 2.9
2016-May-24 23:32N 40°57' E 028°55'1 0.1
2016-May-24 05:23N 40°56' E 028°55'  
2016-May-19 11:19N 32°54' E 034°53'5 6.1
2016-May-19 10:33N 32°53' E 034°59'1 0.5
2016-May-19 09:31N 32°53' E 034°59'0 0.0
2016-May-19 08:23N 32°53' E 034°59'0 0.0
2016-May-19 07:32N 32°53' E 034°59'0 0.0
2016-May-19 06:32N 32°53' E 034°59'0 0.0
2016-May-19 05:31N 32°53' E 034°59'0 0.0
2016-May-19 04:32N 32°53' E 034°59'0 0.0
2016-May-19 03:32N 32°53' E 034°59'0 0.0
2016-May-19 02:32N 32°53' E 034°59'0 0.0
2016-May-19 01:32N 32°53' E 034°59'0 0.0
2016-May-19 00:32N 32°53' E 034°59'0 0.0
2016-May-18 23:32N 32°53' E 034°59'0 0.0
2016-May-18 22:31N 32°53' E 034°59'0 0.0
2016-May-18 21:31N 32°53' E 034°59'0 0.0
2016-May-18 20:24N 32°53' E 034°59'0 0.0
2016-May-18 19:23N 32°53' E 034°59'0 0.0
2016-May-18 18:32N 32°53' E 034°59'4 3.6
2016-May-18 17:34N 32°50' E 035°01'1 1.3
2016-May-18 16:32N 32°50' E 034°60'0 0.0
2016-May-18 15:32N 32°50' E 034°60'0 0.0
2016-May-18 14:31N 32°50' E 034°60'0 0.0
2016-May-18 13:33N 32°50' E 034°60'0 0.0
2016-May-18 12:32N 32°50' E 034°60'0 0.0
2016-May-18 11:32N 32°50' E 034°60'0 0.0
2016-May-18 10:33N 32°50' E 034°60'0 0.0
2016-May-18 09:33N 32°50' E 034°60'0 0.0
2016-May-18 08:31N 32°50' E 034°60'0 0.0
2016-May-18 07:33N 32°50' E 034°60'0 0.0
2016-May-18 06:33N 32°50' E 034°60'0 0.0
2016-May-18 05:33N 32°50' E 034°60'0 0.0
2016-May-18 04:33N 32°50' E 034°60'0 0.0
2016-May-18 03:31N 32°50' E 034°60'0 0.0
2016-May-18 02:32N 32°50' E 034°60'0 0.0
2016-May-18 01:29N 32°50' E 034°60'0 0.0
2016-May-18 00:32N 32°50' E 034°60'0 0.0
2016-May-17 23:32N 32°50' E 034°60'0 0.0
2016-May-17 22:27N 32°50' E 034°60'0 0.0
2016-May-17 21:30N 32°50' E 034°60'0 0.0
2016-May-17 20:28N 32°50' E 034°60'0 0.0
2016-May-17 19:31N 32°50' E 034°60'0 0.0
2016-May-17 18:29N 32°50' E 034°60'  

Dump ship's entire track history